Time;durP1;ratioP1;P1;durP2;ratioP2;P2;SDS_P1;SDS_P2;PMS_P1;PMS_P2;Temp;Humidity;BMP_temperature;BMP_pressure;BME280_temperature;BME280_humidity;BME280_pressure;Samples;Min_cycle;Max_cycle;Signal;HPM_P1;HPM_P2
2022/04/12 00:02:00;;;;;;;7.23;3.43;;;;;;;;;;6300169;22;20161;-87
2022/04/12 00:05:06;;;;;;;7.73;3.80;;;;;;;;;;6297034;22;20227;-85
2022/04/12 00:08:11;;;;;;;8.57;3.40;;;;;;;;;;6316596;22;20523;-85
2022/04/12 00:11:17;;;;;;;8.10;3.90;;;;;;;;;;6316717;22;20492;-84
2022/04/12 00:14:22;;;;;;;9.43;3.87;;;;;;;;;;6316408;22;20161;-86
2022/04/12 00:20:53;;;;;;;10.13;4.20;;;;;;;;;;6318771;22;20181;-85
2022/04/12 00:23:59;;;;;;;8.40;3.60;;;;;;;;;;6303556;22;20267;-87
2022/04/12 00:27:07;;;;;;;6.23;3.40;;;;;;;;;;6317341;22;20193;-85
2022/04/12 00:30:13;;;;;;;10.60;5.20;;;;;;;;;;6318668;22;20165;-87
2022/04/12 00:33:18;;;;;;;8.03;4.07;;;;;;;;;;6320381;22;20185;-86
2022/04/12 00:36:23;;;;;;;11.23;3.30;;;;;;;;;;6316700;22;20507;-87
2022/04/12 00:39:30;;;;;;;10.27;3.70;;;;;;;;;;6301955;22;20168;-85
2022/04/12 00:42:36;;;;;;;6.47;3.63;;;;;;;;;;6302254;22;20165;-85
2022/04/12 00:45:42;;;;;;;10.27;4.27;;;;;;;;;;6298854;22;20191;-86
2022/04/12 00:48:47;;;;;;;13.07;4.40;;;;;;;;;;6319663;22;20169;-86
2022/04/12 00:51:52;;;;;;;7.60;3.37;;;;;;;;;;6318812;22;20169;-86
2022/04/12 00:54:59;;;;;;;8.70;4.03;;;;;;;;;;6299680;22;20173;-86
2022/04/12 00:58:07;;;;;;;9.90;4.00;;;;;;;;;;6317091;22;20168;-86
2022/04/12 01:01:13;;;;;;;8.70;3.87;;;;;;;;;;6299646;22;20165;-83
2022/04/12 01:04:18;;;;;;;8.20;4.20;;;;;;;;;;6302280;22;20165;-85
2022/04/12 01:07:23;;;;;;;9.37;3.87;;;;;;;;;;6319112;22;20599;-86
2022/04/12 01:10:29;;;;;;;8.77;3.50;;;;;;;;;;6300043;22;20165;-85
2022/04/12 01:13:35;;;;;;;9.10;4.10;;;;;;;;;;6300133;22;20173;-84
2022/04/12 01:16:45;;;;;;;8.27;3.97;;;;;;;;;;6303282;22;20205;-83
2022/04/12 01:19:51;;;;;;;8.67;3.83;;;;;;;;;;6299964;22;20169;-87
2022/04/12 01:23:00;;;;;;;6.87;3.90;;;;;;;;;;6318381;22;20165;-85
2022/04/12 01:26:07;;;;;;;8.53;4.13;;;;;;;;;;6298781;22;20221;-86
2022/04/12 01:29:13;;;;;;;12.77;4.43;;;;;;;;;;6319906;22;20149;-86
2022/04/12 01:32:18;;;;;;;8.70;3.80;;;;;;;;;;6320634;22;20271;-85
2022/04/12 01:35:23;;;;;;;7.97;4.30;;;;;;;;;;6302391;22;20477;-85
2022/04/12 01:38:28;;;;;;;9.23;4.73;;;;;;;;;;6300978;22;20169;-85
2022/04/12 01:41:36;;;;;;;9.97;4.73;;;;;;;;;;6300638;22;20173;-85
2022/04/12 01:44:41;;;;;;;11.67;4.50;;;;;;;;;;6319897;22;20620;-86
2022/04/12 01:47:46;;;;;;;10.20;4.60;;;;;;;;;;6301404;22;20169;-87
2022/04/12 01:50:52;;;;;;;11.30;3.90;;;;;;;;;;6319454;22;20609;-86
2022/04/12 01:53:56;;;;;;;7.00;3.97;;;;;;;;;;6319438;22;20617;-87
2022/04/12 01:57:03;;;;;;;11.80;4.03;;;;;;;;;;6319183;22;20220;-85
2022/04/12 02:00:09;;;;;;;9.43;4.10;;;;;;;;;;6318901;22;20693;-86
2022/04/12 02:03:22;;;;;;;9.17;3.87;;;;;;;;;;6318962;22;20192;-85
2022/04/12 02:06:27;;;;;;;11.33;3.73;;;;;;;;;;6317748;22;20166;-86
2022/04/12 02:09:33;;;;;;;8.37;4.20;;;;;;;;;;6320888;22;20618;-84
2022/04/12 02:12:39;;;;;;;11.93;4.10;;;;;;;;;;6300720;22;20164;-86
2022/04/12 02:15:44;;;;;;;6.83;3.70;;;;;;;;;;6299675;22;20189;-85
2022/04/12 02:18:52;;;;;;;8.47;4.33;;;;;;;;;;6318125;22;20215;-86
2022/04/12 02:21:56;;;;;;;9.23;3.83;;;;;;;;;;6319444;22;20165;-87
2022/04/12 02:25:01;;;;;;;7.03;4.00;;;;;;;;;;6319617;22;20172;-86
2022/04/12 02:28:08;;;;;;;9.00;3.83;;;;;;;;;;6301011;22;20169;-86
2022/04/12 02:31:13;;;;;;;7.47;4.00;;;;;;;;;;6315829;22;20165;-86
2022/04/12 02:34:18;;;;;;;10.60;4.57;;;;;;;;;;6315070;22;20173;-83
2022/04/12 02:37:23;;;;;;;7.67;3.83;;;;;;;;;;6316662;22;20256;-85
2022/04/12 02:40:28;;;;;;;10.40;4.30;;;;;;;;;;6317436;22;20169;-85
2022/04/12 02:43:34;;;;;;;9.50;4.50;;;;;;;;;;6299776;22;20165;-87
2022/04/12 02:46:39;;;;;;;9.70;3.70;;;;;;;;;;6300278;22;20168;-88
2022/04/12 02:49:46;;;;;;;8.67;4.07;;;;;;;;;;6298749;22;20221;-85
2022/04/12 02:52:52;;;;;;;10.23;4.13;;;;;;;;;;6299940;22;20167;-84
2022/04/12 02:55:57;;;;;;;11.03;4.17;;;;;;;;;;6317549;22;20160;-85
2022/04/12 02:59:04;;;;;;;6.73;3.47;;;;;;;;;;6318358;22;20169;-85
2022/04/12 03:02:11;;;;;;;8.00;3.93;;;;;;;;;;6318005;22;20169;-84
2022/04/12 03:05:16;;;;;;;13.37;4.30;;;;;;;;;;6316907;22;20497;-86
2022/04/12 03:08:21;;;;;;;9.57;4.10;;;;;;;;;;6315038;22;20165;-85
2022/04/12 03:11:26;;;;;;;10.27;4.23;;;;;;;;;;6300152;22;20166;-86
2022/04/12 03:14:32;;;;;;;8.43;4.27;;;;;;;;;;6299750;22;20199;-86
2022/04/12 03:17:37;;;;;;;17.83;5.27;;;;;;;;;;6297719;22;20208;-85
2022/04/12 03:20:42;;;;;;;13.30;4.40;;;;;;;;;;6315392;22;20176;-85
2022/04/12 03:23:47;;;;;;;10.93;4.23;;;;;;;;;;6298807;22;20184;-86
2022/04/12 03:26:54;;;;;;;18.53;8.40;;;;;;;;;;6297615;22;20166;-86
2022/04/12 03:30:02;;;;;;;27.63;12.13;;;;;;;;;;6316920;22;20231;-86
2022/04/12 03:33:08;;;;;;;10.03;4.70;;;;;;;;;;6297594;22;20165;-86
2022/04/12 03:36:12;;;;;;;10.77;4.53;;;;;;;;;;6315452;22;20303;-85
2022/04/12 03:39:17;;;;;;;7.20;3.93;;;;;;;;;;6297261;22;20204;-86
2022/04/12 03:42:22;;;;;;;7.37;4.10;;;;;;;;;;6313401;22;20284;-86
2022/04/12 03:45:29;;;;;;;11.03;4.60;;;;;;;;;;6314664;22;20149;-86
2022/04/12 03:48:34;;;;;;;11.43;5.00;;;;;;;;;;6299183;22;20169;-87
2022/04/12 03:51:39;;;;;;;16.23;6.97;;;;;;;;;;6315875;22;20164;-86
2022/04/12 03:54:45;;;;;;;15.57;6.70;;;;;;;;;;6315946;22;20488;-87
2022/04/12 03:57:50;;;;;;;16.80;8.80;;;;;;;;;;6296852;22;20192;-86
2022/04/12 04:01:05;;;;;;;19.93;7.87;;;;;;;;;;6313091;22;20308;-86
2022/04/12 04:04:10;;;;;;;16.83;7.17;;;;;;;;;;6314635;22;20522;-86
2022/04/12 04:07:15;;;;;;;11.60;5.10;;;;;;;;;;6313385;22;20165;-86
2022/04/12 04:10:20;;;;;;;12.27;4.97;;;;;;;;;;6294673;22;20320;-86
2022/04/12 04:13:26;;;;;;;10.33;4.60;;;;;;;;;;6313982;22;20176;-87
2022/04/12 04:16:32;;;;;;;9.43;4.40;;;;;;;;;;6313296;22;20216;-86
2022/04/12 04:19:37;;;;;;;18.90;4.57;;;;;;;;;;6314294;22;20172;-86
2022/04/12 04:22:43;;;;;;;11.53;4.77;;;;;;;;;;6313526;22;20539;-87
2022/04/12 04:25:48;;;;;;;7.50;4.43;;;;;;;;;;6312788;22;20223;-85
2022/04/12 04:28:53;;;;;;;14.90;4.33;;;;;;;;;;6295098;22;20165;-86
2022/04/12 04:32:00;;;;;;;9.80;5.40;;;;;;;;;;6295932;22;20191;-87
2022/04/12 04:35:05;;;;;;;9.43;4.27;;;;;;;;;;6295227;22;20505;-87
2022/04/12 04:38:10;;;;;;;8.77;4.37;;;;;;;;;;6315340;22;20229;-87
2022/04/12 04:41:15;;;;;;;11.97;3.90;;;;;;;;;;6314112;22;20216;-84
2022/04/12 04:44:19;;;;;;;11.63;3.47;;;;;;;;;;6314458;22;20600;-85
2022/04/12 04:47:27;;;;;;;11.33;3.80;;;;;;;;;;6316775;22;20503;-86
2022/04/12 04:50:33;;;;;;;7.57;3.30;;;;;;;;;;6297608;22;20145;-86
2022/04/12 04:53:39;;;;;;;7.47;3.40;;;;;;;;;;6299103;22;20215;-87
2022/04/12 04:56:44;;;;;;;8.27;3.63;;;;;;;;;;6314441;22;20193;-86
2022/04/12 04:59:53;;;;;;;6.97;3.97;;;;;;;;;;6296752;22;20173;-86
2022/04/12 05:03:00;;;;;;;13.03;4.20;;;;;;;;;;6318110;22;20211;-87
2022/04/12 05:06:06;;;;;;;15.13;3.93;;;;;;;;;;6317126;22;20279;-87
2022/04/12 05:09:11;;;;;;;8.17;3.63;;;;;;;;;;6319085;22;20169;-86
2022/04/12 05:12:16;;;;;;;9.23;4.23;;;;;;;;;;6316585;22;20632;-87
2022/04/12 05:15:21;;;;;;;12.77;4.53;;;;;;;;;;6314432;22;20184;-86
2022/04/12 05:18:28;;;;;;;17.17;4.73;;;;;;;;;;6316699;22;20192;-85
2022/04/12 05:21:34;;;;;;;12.93;4.43;;;;;;;;;;6303068;22;20165;-87
2022/04/12 05:24:39;;;;;;;10.53;4.97;;;;;;;;;;6317983;22;20192;-85
2022/04/12 05:27:44;;;;;;;9.47;4.47;;;;;;;;;;6316453;22;20169;-85
2022/04/12 05:30:50;;;;;;;9.83;4.57;;;;;;;;;;6315590;22;20622;-86
2022/04/12 05:33:56;;;;;;;8.90;4.87;;;;;;;;;;6314701;22;20173;-85
2022/04/12 05:37:01;;;;;;;10.53;4.00;;;;;;;;;;6317370;22;20196;-85
2022/04/12 05:40:06;;;;;;;9.20;3.67;;;;;;;;;;6317953;22;20629;-87
2022/04/12 05:43:12;;;;;;;6.37;3.67;;;;;;;;;;6321173;22;20165;-88
2022/04/12 05:46:17;;;;;;;7.13;3.43;;;;;;;;;;6316254;22;20165;-85
2022/04/12 05:49:24;;;;;;;10.70;4.00;;;;;;;;;;6316662;22;20169;-87
2022/04/12 05:52:29;;;;;;;10.17;3.67;;;;;;;;;;6316595;22;20165;-86
2022/04/12 05:55:34;;;;;;;7.17;3.77;;;;;;;;;;6315200;22;20164;-87
2022/04/12 05:58:40;;;;;;;8.03;3.87;;;;;;;;;;6317091;22;20322;-88
2022/04/12 06:01:45;;;;;;;9.17;3.37;;;;;;;;;;6299296;22;20166;-86
2022/04/12 06:04:51;;;;;;;7.73;3.90;;;;;;;;;;6316495;22;20192;-86
2022/04/12 06:07:56;;;;;;;6.20;3.60;;;;;;;;;;6319813;22;20246;-88
2022/04/12 06:11:02;;;;;;;8.57;3.40;;;;;;;;;;6299364;22;20577;-85
2022/04/12 06:14:08;;;;;;;8.63;4.10;;;;;;;;;;6317156;22;20177;-85
2022/04/12 06:17:13;;;;;;;9.37;4.47;;;;;;;;;;6315549;22;20208;-87
2022/04/12 06:20:19;;;;;;;8.53;3.70;;;;;;;;;;6296447;22;20273;-86
2022/04/12 06:23:25;;;;;;;8.97;3.77;;;;;;;;;;6316055;22;20212;-88
2022/04/12 06:26:30;;;;;;;9.50;4.00;;;;;;;;;;6297169;22;20165;-86
2022/04/12 06:29:35;;;;;;;9.13;4.10;;;;;;;;;;6315125;22;20185;-87
2022/04/12 06:32:40;;;;;;;15.87;5.43;;;;;;;;;;6298467;22;20166;-86
2022/04/12 06:35:47;;;;;;;9.23;4.50;;;;;;;;;;6316406;22;20636;-86
2022/04/12 06:38:53;;;;;;;6.57;3.50;;;;;;;;;;6316424;22;20188;-85
2022/04/12 06:41:59;;;;;;;10.17;3.33;;;;;;;;;;6318293;22;20233;-86
2022/04/12 06:45:05;;;;;;;7.87;3.30;;;;;;;;;;6318006;22;20164;-86
2022/04/12 06:48:11;;;;;;;6.85;3.45;;;;;;;;;;6317780;22;20162;-88
2022/04/12 06:51:17;;;;;;;9.73;3.13;;;;;;;;;;6315345;22;20165;-86
2022/04/12 06:54:22;;;;;;;5.95;2.85;;;;;;;;;;6297221;22;20579;-85
2022/04/12 06:57:31;;;;;;;7.15;3.15;;;;;;;;;;6297903;22;20193;-87
2022/04/12 07:00:39;;;;;;;5.25;3.38;;;;;;;;;;6316271;22;20165;-88
2022/04/12 07:03:45;;;;;;;9.65;4.20;;;;;;;;;;6315964;22;20169;-88
2022/04/12 07:06:51;;;;;;;21.88;13.02;;;;;;;;;;6297664;22;20299;-87
2022/04/12 07:09:56;;;;;;;5.78;2.65;;;;;;;;;;6299069;22;20242;-87
2022/04/12 07:13:01;;;;;;;10.18;3.08;;;;;;;;;;6316433;22;20177;-87
2022/04/12 07:16:06;;;;;;;7.32;3.45;;;;;;;;;;6315537;22;20200;-86
2022/04/12 07:19:11;;;;;;;7.35;3.40;;;;;;;;;;6314915;22;20281;-88
2022/04/12 07:22:18;;;;;;;6.25;3.00;;;;;;;;;;6315410;22;20166;-86
2022/04/12 07:25:23;;;;;;;13.48;3.70;;;;;;;;;;6313104;22;20670;-85
2022/04/12 07:28:28;;;;;;;6.05;2.80;;;;;;;;;;6314931;22;20168;-87
2022/04/12 07:31:33;;;;;;;7.65;2.50;;;;;;;;;;6312376;22;20192;-87
2022/04/12 07:34:40;;;;;;;5.55;2.38;;;;;;;;;;6300135;22;20157;-87
2022/04/12 07:37:46;;;;;;;9.60;2.45;;;;;;;;;;6296473;22;20193;-87
2022/04/12 07:40:53;;;;;;;5.95;2.47;;;;;;;;;;6313023;22;20212;-85
2022/04/12 07:43:58;;;;;;;7.43;2.80;;;;;;;;;;6296566;22;20229;-87
2022/04/12 07:47:04;;;;;;;5.00;2.75;;;;;;;;;;6318019;22;20181;-87
2022/04/12 07:50:10;;;;;;;7.10;2.63;;;;;;;;;;6299633;22;20164;-86
2022/04/12 07:53:16;;;;;;;7.03;2.85;;;;;;;;;;6316925;22;20192;-88
2022/04/12 07:56:21;;;;;;;5.07;2.40;;;;;;;;;;6315052;22;20157;-86
2022/04/12 07:59:27;;;;;;;7.90;2.10;;;;;;;;;;6316295;22;20278;-88
2022/04/12 08:02:31;;;;;;;5.90;2.25;;;;;;;;;;6315977;22;20608;-89
2022/04/12 08:05:36;;;;;;;6.40;2.58;;;;;;;;;;6295864;22;20594;-88
2022/04/12 08:08:44;;;;;;;4.80;1.90;;;;;;;;;;6314787;22;20192;-87
2022/04/12 08:11:49;;;;;;;5.82;2.08;;;;;;;;;;6297242;22;20647;-88
2022/04/12 08:14:55;;;;;;;6.88;2.50;;;;;;;;;;6299148;22;20177;-86
2022/04/12 08:18:00;;;;;;;6.30;2.53;;;;;;;;;;6319455;22;20168;-88
2022/04/12 08:21:05;;;;;;;6.15;2.20;;;;;;;;;;6319526;22;20215;-89
2022/04/12 08:24:12;;;;;;;8.05;2.83;;;;;;;;;;6299932;22;20184;-89
2022/04/12 08:27:17;;;;;;;5.95;2.10;;;;;;;;;;6314923;22;20169;-88
2022/04/12 08:30:22;;;;;;;4.60;2.03;;;;;;;;;;6298040;22;20169;-85
2022/04/12 08:33:27;;;;;;;4.50;2.40;;;;;;;;;;6317219;22;20169;-90
2022/04/12 08:36:32;;;;;;;9.98;2.40;;;;;;;;;;6316186;22;20187;-86
2022/04/12 08:39:39;;;;;;;4.75;2.42;;;;;;;;;;6314039;22;20215;-88
2022/04/12 08:42:44;;;;;;;4.43;2.20;;;;;;;;;;6313867;22;20251;-89
2022/04/12 08:45:49;;;;;;;8.15;2.45;;;;;;;;;;6315916;22;20233;-89
2022/04/12 08:48:55;;;;;;;5.68;2.00;;;;;;;;;;6317343;22;20315;-89
2022/04/12 08:52:00;;;;;;;4.75;2.60;;;;;;;;;;6314583;22;20188;-89
2022/04/12 08:55:08;;;;;;;8.93;2.88;;;;;;;;;;6317051;22;20169;-88
2022/04/12 08:58:14;;;;;;;5.53;2.22;;;;;;;;;;6300123;22;20165;-89
2022/04/12 09:01:20;;;;;;;6.85;1.88;;;;;;;;;;6299071;22;20168;-89
2022/04/12 09:04:26;;;;;;;8.02;2.95;;;;;;;;;;6319439;22;20153;-86
2022/04/12 09:07:34;;;;;;;5.57;1.80;;;;;;;;;;6299769;22;20165;-86
2022/04/12 09:10:41;;;;;;;3.30;1.60;;;;;;;;;;6300007;22;20223;-88
2022/04/12 09:13:59;;;;;;;3.97;1.80;;;;;;;;;;6317090;22;20165;-86
2022/04/12 09:17:05;;;;;;;4.35;1.90;;;;;;;;;;6315328;22;20188;-90
2022/04/12 09:20:12;;;;;;;2.42;1.20;;;;;;;;;;6315398;22;20168;-89
2022/04/12 09:23:18;;;;;;;5.03;2.00;;;;;;;;;;6315859;22;20689;-88
2022/04/12 09:26:25;;;;;;;6.18;1.50;;;;;;;;;;6315739;22;20587;-87
2022/04/12 09:29:31;;;;;;;4.00;1.40;;;;;;;;;;6315425;22;20303;-89
2022/04/12 09:32:36;;;;;;;2.35;1.10;;;;;;;;;;6317398;22;20157;-88
2022/04/12 09:35:41;;;;;;;3.97;1.30;;;;;;;;;;6321522;22;20181;-87
2022/04/12 09:38:50;;;;;;;2.53;1.10;;;;;;;;;;6305834;22;20164;-89
2022/04/12 09:41:58;;;;;;;3.85;1.00;;;;;;;;;;6301148;22;20220;-89
2022/04/12 09:45:03;;;;;;;2.40;1.00;;;;;;;;;;6299841;22;20165;-89
2022/04/12 09:48:09;;;;;;;4.03;1.20;;;;;;;;;;6319352;22;20507;-90
2022/04/12 09:51:14;;;;;;;3.80;1.20;;;;;;;;;;6300277;22;20215;-90
2022/04/12 09:54:23;;;;;;;4.85;1.20;;;;;;;;;;6298892;22;20393;-89
2022/04/12 09:57:30;;;;;;;2.53;0.90;;;;;;;;;;6324295;22;20169;-87
2022/04/12 10:04:20;;;;;;;3.10;1.20;;;;;;;;;;6262813;22;20217;-87
2022/04/12 10:07:25;;;;;;;9.02;1.30;;;;;;;;;;6275606;22;20222;-88
2022/04/12 10:10:31;;;;;;;12.13;1.30;;;;;;;;;;6276999;22;20221;-90
2022/04/12 10:13:37;;;;;;;3.35;1.13;;;;;;;;;;6277140;22;20163;-88
2022/04/12 10:16:42;;;;;;;3.65;0.93;;;;;;;;;;6277103;22;20282;-90
2022/04/12 10:19:48;;;;;;;1.35;0.80;;;;;;;;;;6256203;23;20215;-89
2022/04/12 10:22:54;;;;;;;4.53;1.30;;;;;;;;;;6275472;22;20166;-87
2022/04/12 10:26:00;;;;;;;7.03;2.13;;;;;;;;;;6255869;23;20166;-87
2022/04/12 10:29:08;;;;;;;2.13;1.02;;;;;;;;;;6275091;22;20290;-87
2022/04/12 10:32:14;;;;;;;3.72;0.90;;;;;;;;;;6274653;22;20162;-87
2022/04/12 10:35:19;;;;;;;1.45;0.80;;;;;;;;;;6274299;22;20194;-88
2022/04/12 10:38:26;;;;;;;1.23;0.90;;;;;;;;;;6257467;22;20159;-89
2022/04/12 10:41:32;;;;;;;3.47;1.00;;;;;;;;;;6280260;22;20242;-88
2022/04/12 10:44:49;;;;;;;4.80;1.35;;;;;;;;;;6279416;22;20209;-87
2022/04/12 10:47:58;;;;;;;3.60;0.80;;;;;;;;;;6279592;22;20241;-86
2022/04/12 10:51:04;;;;;;;4.32;1.15;;;;;;;;;;6274802;22;20162;-88
2022/04/12 10:54:29;;;;;;;1.90;0.80;;;;;;;;;;6259710;22;20182;-88
2022/04/12 10:57:33;;;;;;;6.70;0.80;;;;;;;;;;6277773;22;20158;-87
2022/04/12 11:00:42;;;;;;;1.05;0.73;;;;;;;;;;6259436;22;20214;-87
2022/04/12 11:03:54;;;;;;;3.42;0.90;;;;;;;;;;6276894;22;20174;-90
2022/04/12 11:07:00;;;;;;;0.98;0.82;;;;;;;;;;6259121;23;20210;-88
2022/04/12 11:10:23;;;;;;;4.78;0.90;;;;;;;;;;6275337;22;20188;-88
2022/04/12 11:13:29;;;;;;;2.60;1.00;;;;;;;;;;6256297;23;20384;-88
2022/04/12 11:16:48;;;;;;;2.45;0.70;;;;;;;;;;6276507;22;20166;-88
2022/04/12 11:19:56;;;;;;;1.85;0.85;;;;;;;;;;6276801;22;20273;-89
2022/04/12 11:23:01;;;;;;;1.52;0.90;;;;;;;;;;6258683;23;20173;-88
2022/04/12 11:26:27;;;;;;;1.55;0.80;;;;;;;;;;6255766;23;20216;-89
2022/04/12 11:29:34;;;;;;;3.15;0.90;;;;;;;;;;6274001;22;20182;-87
2022/04/12 11:32:50;;;;;;;1.40;0.82;;;;;;;;;;6257639;22;20161;-86
2022/04/12 11:35:56;;;;;;;2.72;0.77;;;;;;;;;;6258633;22;20170;-89
2022/04/12 11:39:02;;;;;;;6.57;1.17;;;;;;;;;;6257384;23;20181;-89
2022/04/12 11:42:08;;;;;;;1.50;0.80;;;;;;;;;;6256796;22;20173;-88
2022/04/12 11:45:14;;;;;;;2.25;0.82;;;;;;;;;;6277033;22;20153;-89
2022/04/12 11:48:21;;;;;;;2.38;0.75;;;;;;;;;;6259453;22;20213;-87
2022/04/12 11:51:26;;;;;;;3.13;1.17;;;;;;;;;;6275404;22;20169;-90
2022/04/12 11:54:31;;;;;;;3.17;1.00;;;;;;;;;;6257811;23;20166;-90
2022/04/12 11:57:37;;;;;;;2.15;1.00;;;;;;;;;;6258989;23;20169;-89
2022/04/12 12:00:43;;;;;;;1.90;0.80;;;;;;;;;;6277535;22;20174;-87
2022/04/12 12:03:50;;;;;;;1.92;1.00;;;;;;;;;;6277468;22;20240;-89
2022/04/12 12:06:56;;;;;;;1.27;0.73;;;;;;;;;;6259519;23;20157;-90
2022/04/12 12:10:02;;;;;;;5.05;1.38;;;;;;;;;;6277229;22;20189;-87
2022/04/12 12:13:08;;;;;;;3.65;0.95;;;;;;;;;;6276687;22;20165;-87
2022/04/12 12:16:16;;;;;;;3.90;1.60;;;;;;;;;;6278402;22;20242;-87
2022/04/12 12:19:23;;;;;;;2.70;0.98;;;;;;;;;;6257968;22;20170;-89
2022/04/12 12:22:36;;;;;;;3.63;1.35;;;;;;;;;;6261360;22;20166;-90
2022/04/12 12:25:43;;;;;;;2.70;1.25;;;;;;;;;;6278871;22;20166;-90
2022/04/12 12:28:48;;;;;;;17.33;12.48;;;;;;;;;;6260061;22;20194;-89
2022/04/12 12:31:57;;;;;;;6.18;1.10;;;;;;;;;;6257387;22;20188;-88
2022/04/12 12:35:10;;;;;;;2.78;1.00;;;;;;;;;;6275332;22;20165;-89
2022/04/12 12:38:16;;;;;;;4.85;1.10;;;;;;;;;;6258989;23;20227;-90
2022/04/12 23:00:55;;;;;;;6.33;3.37;;;;;;;;;;6218490;22;1624801;-87
2022/04/12 23:04:00;;;;;;;10.20;3.73;;;;;;;;;;6271599;22;20185;-87
2022/04/12 23:07:06;;;;;;;6.67;3.30;;;;;;;;;;6269326;22;20186;-88
2022/04/12 23:10:11;;;;;;;5.93;3.10;;;;;;;;;;6271384;22;20196;-87
2022/04/12 23:13:17;;;;;;;6.63;3.63;;;;;;;;;;6270508;22;20494;-87
2022/04/12 23:16:24;;;;;;;7.87;3.30;;;;;;;;;;6269342;22;20189;-87
2022/04/12 23:19:29;;;;;;;11.67;3.60;;;;;;;;;;6272598;22;20166;-88
2022/04/12 23:22:34;;;;;;;7.83;3.57;;;;;;;;;;6271044;22;20620;-88
2022/04/12 23:25:38;;;;;;;8.00;3.30;;;;;;;;;;6268798;22;20170;-89
2022/04/12 23:28:44;;;;;;;6.60;3.27;;;;;;;;;;6270705;22;20624;-87
2022/04/12 23:31:50;;;;;;;8.37;3.50;;;;;;;;;;6270106;22;20161;-88
2022/04/12 23:34:56;;;;;;;6.23;3.37;;;;;;;;;;6271205;22;20157;-87
2022/04/12 23:38:02;;;;;;;9.60;4.20;;;;;;;;;;6272482;22;20197;-86
2022/04/12 23:41:07;;;;;;;7.37;3.53;;;;;;;;;;6273868;22;20498;-88
2022/04/12 23:44:12;;;;;;;7.43;3.40;;;;;;;;;;6272331;22;20169;-88
2022/04/12 23:47:19;;;;;;;7.63;3.43;;;;;;;;;;6271250;22;20169;-88
2022/04/12 23:50:24;;;;;;;5.87;3.60;;;;;;;;;;6269161;22;20162;-87
2022/04/12 23:53:29;;;;;;;7.30;3.80;;;;;;;;;;6269998;22;20161;-86
2022/04/12 23:56:34;;;;;;;10.03;3.50;;;;;;;;;;6287671;22;20251;-88
2022/04/12 23:59:40;;;;;;;6.20;3.40;;;;;;;;;;6271834;22;20188;-88
